createdAt,value
2018-09-18T00:00:02.853Z,14.57
2018-09-18T00:02:31.167Z,13.67
2018-09-18T00:04:59.474Z,14.47
2018-09-18T00:07:27.777Z,13.80
2018-09-18T00:09:56.085Z,13.70
2018-09-18T00:12:24.386Z,13.90
2018-09-18T00:14:52.682Z,12.93
2018-09-18T00:17:21.000Z,12.90
2018-09-18T00:19:49.274Z,13.20
2018-09-18T00:22:17.566Z,12.80
2018-09-18T00:24:45.877Z,13.97
2018-09-18T00:27:14.178Z,12.80
2018-09-18T00:29:42.502Z,13.13
2018-09-18T00:32:10.795Z,13.27
2018-09-18T00:34:39.085Z,13.40
2018-09-18T00:37:07.385Z,13.40
2018-09-18T00:39:35.681Z,13.47
2018-09-18T00:42:03.985Z,13.93
2018-09-18T00:44:32.285Z,13.90
2018-09-18T00:47:00.578Z,13.70
2018-09-18T00:49:28.882Z,13.60
2018-09-18T00:51:57.177Z,14.17
2018-09-18T00:54:25.486Z,12.60
2018-09-18T00:56:53.793Z,14.73
2018-09-18T00:59:22.101Z,15.30
2018-09-18T01:01:50.393Z,13.67
2018-09-18T01:04:18.701Z,12.67
2018-09-18T01:06:47.006Z,14.10
2018-09-18T01:09:15.306Z,13.30
2018-09-18T01:11:43.610Z,12.47
2018-09-18T01:14:11.910Z,12.67
2018-09-18T01:16:40.213Z,12.03
2018-09-18T01:19:08.523Z,13.50
2018-09-18T01:21:36.829Z,12.80
2018-09-18T01:24:05.130Z,13.33
2018-09-18T01:26:33.489Z,13.00
2018-09-18T01:29:01.785Z,12.60
2018-09-18T01:31:30.081Z,13.47
2018-09-18T01:33:58.386Z,13.23
2018-09-18T01:36:26.677Z,14.13
2018-09-18T01:38:54.984Z,13.50
2018-09-18T01:41:23.273Z,12.90
2018-09-18T01:43:51.661Z,12.30
2018-09-18T01:46:19.882Z,13.50
2018-09-18T01:48:48.182Z,13.70
2018-09-18T01:51:16.490Z,13.67
2018-09-18T01:53:44.794Z,14.00
2018-09-18T01:56:13.109Z,13.37
2018-09-18T01:58:41.418Z,12.53
2018-09-18T02:01:09.725Z,12.43
2018-09-18T02:03:38.026Z,12.30
2018-09-18T02:06:06.350Z,12.03
2018-09-18T02:08:34.658Z,12.67
2018-09-18T02:11:02.962Z,11.50
2018-09-18T02:13:31.272Z,12.97
2018-09-18T02:15:59.565Z,11.93
2018-09-18T02:18:27.853Z,12.30
2018-09-18T02:20:56.153Z,13.00
2018-09-18T02:23:24.454Z,11.40
2018-09-18T02:25:52.765Z,11.97
2018-09-18T02:28:21.061Z,12.33
2018-09-18T02:30:49.375Z,13.00
2018-09-18T02:33:17.663Z,12.27
2018-09-18T02:35:45.980Z,12.50
2018-09-18T02:38:14.274Z,13.07
2018-09-18T02:40:42.585Z,12.60
2018-09-18T02:43:10.897Z,14.10
2018-09-18T02:45:39.189Z,13.63
2018-09-18T02:48:07.505Z,14.13
2018-09-18T02:50:35.798Z,14.07
2018-09-18T02:53:04.102Z,14.07
2018-09-18T02:55:32.405Z,13.20
2018-09-18T02:58:00.705Z,15.00
2018-09-18T03:00:29.013Z,14.90
2018-09-18T03:02:57.310Z,13.43
2018-09-18T03:05:25.617Z,13.23
2018-09-18T03:07:53.932Z,13.70
2018-09-18T03:10:22.218Z,13.40
2018-09-18T03:12:50.529Z,13.70
2018-09-18T03:15:18.814Z,14.23
2018-09-18T03:17:47.134Z,13.33
2018-09-18T03:20:15.425Z,12.50
2018-09-18T03:22:43.776Z,14.77
2018-09-18T03:25:12.169Z,13.63
2018-09-18T03:27:40.450Z,13.23
2018-09-18T03:30:08.774Z,13.13
2018-09-18T03:32:37.069Z,13.90
2018-09-18T03:35:05.386Z,13.37
2018-09-18T03:37:33.697Z,12.37
2018-09-18T03:40:02.003Z,12.17
2018-09-18T03:42:30.351Z,13.57
2018-09-18T03:44:59.255Z,12.87
2018-09-18T03:47:27.570Z,12.93
2018-09-18T03:49:55.885Z,13.87
2018-09-18T03:52:24.189Z,13.87
2018-09-18T03:54:52.505Z,15.70
2018-09-18T03:57:20.805Z,15.20
2018-09-18T03:59:49.127Z,14.37
2018-09-18T04:02:17.438Z,14.87
2018-09-18T04:04:45.745Z,15.67
2018-09-18T04:07:14.071Z,13.80
2018-09-18T04:09:42.385Z,13.70
2018-09-18T04:12:10.694Z,13.70
2018-09-18T04:14:39.010Z,15.53
2018-09-18T04:17:07.350Z,14.40
2018-09-18T04:19:35.674Z,13.77
2018-09-18T04:22:03.978Z,14.63
2018-09-18T04:24:32.298Z,14.80
2018-09-18T04:27:00.611Z,14.70
2018-09-18T04:29:28.909Z,13.20
2018-09-18T04:31:57.237Z,13.03
2018-09-18T04:34:25.537Z,14.60
2018-09-18T04:36:53.842Z,14.63
2018-09-18T04:39:22.155Z,14.40
2018-09-18T04:41:50.462Z,15.47
2018-09-18T04:44:18.784Z,14.27
2018-09-18T04:46:47.082Z,14.73
2018-09-18T04:49:15.400Z,16.13
2018-09-18T04:51:43.717Z,15.17
2018-09-18T04:54:12.025Z,14.80
2018-09-18T04:56:40.346Z,14.00
2018-09-18T04:59:08.650Z,15.30
2018-09-18T05:01:36.955Z,16.10
2018-09-18T05:04:05.265Z,14.30
2018-09-18T05:06:33.570Z,14.47
2018-09-18T05:09:01.897Z,15.27
2018-09-18T05:11:30.201Z,14.87
2018-09-18T05:13:58.573Z,15.00
2018-09-18T05:16:26.865Z,16.10
2018-09-18T05:18:55.166Z,14.57
2018-09-18T05:21:23.486Z,14.37
2018-09-18T05:23:51.797Z,16.13
2018-09-18T05:26:20.109Z,15.83
2018-09-18T05:28:48.422Z,16.43
2018-09-18T05:31:16.742Z,16.27
2018-09-18T05:33:45.098Z,16.63
2018-09-18T05:36:15.593Z,16.57
2018-09-18T05:38:43.897Z,16.20
2018-09-18T05:41:12.213Z,16.83
2018-09-18T05:43:40.518Z,16.97
2018-09-18T05:46:08.857Z,16.63
2018-09-18T05:48:37.174Z,16.70
2018-09-18T05:51:05.469Z,16.13
2018-09-18T05:53:33.779Z,16.73
2018-09-18T05:56:02.114Z,16.53
2018-09-18T05:58:30.390Z,16.93
2018-09-18T06:00:58.689Z,16.37
2018-09-18T06:03:26.988Z,16.43
2018-09-18T06:05:55.298Z,17.67
2018-09-18T06:08:23.594Z,16.77
2018-09-18T06:10:51.909Z,16.97
2018-09-18T06:13:20.217Z,17.90
2018-09-18T06:15:48.501Z,17.43
2018-09-18T06:18:16.806Z,19.53
2018-09-18T06:20:45.102Z,16.90
2018-09-18T06:23:13.421Z,17.27
2018-09-18T06:25:42.833Z,17.07
2018-09-18T06:28:11.151Z,17.43
2018-09-18T06:30:39.434Z,18.20
2018-09-18T06:33:07.789Z,19.90
2018-09-18T06:35:36.110Z,18.87
2018-09-18T06:38:04.503Z,20.50
2018-09-18T06:40:32.845Z,19.13
2018-09-18T06:43:01.137Z,19.07
2018-09-18T06:45:29.433Z,19.97
2018-09-18T06:47:57.757Z,20.30
2018-09-18T06:50:26.047Z,19.83
2018-09-18T06:52:54.342Z,19.77
2018-09-18T06:55:22.641Z,19.83
2018-09-18T06:57:50.937Z,19.47
2018-09-18T07:00:19.266Z,19.40
2018-09-18T07:02:47.557Z,19.63
2018-09-18T07:05:15.900Z,18.70
2018-09-18T07:07:44.201Z,19.43
2018-09-18T07:10:12.505Z,18.60
2018-09-18T07:12:40.826Z,18.20
2018-09-18T07:15:09.119Z,18.60
2018-09-18T07:17:37.412Z,17.10
2018-09-18T07:20:05.722Z,17.40
2018-09-18T07:22:34.021Z,18.67
2018-09-18T07:25:02.455Z,18.83
2018-09-18T07:27:30.666Z,18.50
2018-09-18T07:29:58.965Z,17.83
2018-09-18T07:32:27.270Z,19.17
2018-09-18T07:34:55.567Z,17.57
2018-09-18T07:37:23.895Z,17.67
2018-09-18T07:39:52.216Z,18.13
2018-09-18T07:42:20.590Z,17.67
2018-09-18T07:44:48.901Z,16.60
2018-09-18T07:47:17.194Z,16.53
2018-09-18T07:49:45.506Z,17.87
2018-09-18T07:52:13.867Z,17.20
2018-09-18T07:54:42.110Z,17.50
2018-09-18T07:57:10.416Z,17.17
2018-09-18T07:59:38.715Z,18.40
2018-09-18T08:02:07.028Z,16.30
2018-09-18T08:04:35.322Z,17.77
2018-09-18T08:07:03.619Z,16.47
2018-09-18T08:09:31.926Z,17.63
2018-09-18T08:12:00.217Z,16.60
2018-09-18T08:14:28.531Z,17.47
2018-09-18T08:16:56.827Z,16.63
2018-09-18T08:19:25.257Z,17.70
2018-09-18T08:21:53.484Z,16.63
2018-09-18T08:24:21.746Z,16.97
2018-09-18T08:26:50.085Z,16.57
2018-09-18T08:29:18.382Z,17.70
2018-09-18T08:31:46.677Z,17.70
2018-09-18T08:34:15.012Z,17.00
2018-09-18T08:36:43.309Z,16.63
2018-09-18T08:39:11.627Z,16.50
2018-09-18T08:41:39.953Z,16.50
2018-09-18T08:44:12.141Z,17.57
2018-09-18T08:46:40.422Z,16.83
2018-09-18T08:49:08.735Z,16.33
2018-09-18T08:51:37.099Z,18.43
2018-09-18T08:54:05.386Z,16.87
2018-09-18T08:56:33.694Z,15.63
2018-09-18T08:59:02.008Z,17.20
2018-09-18T09:01:30.314Z,17.00
2018-09-18T09:03:58.688Z,17.93
2018-09-18T09:06:26.980Z,18.00
2018-09-18T09:08:55.524Z,16.73
2018-09-18T09:11:23.640Z,17.13
2018-09-18T09:13:51.927Z,17.20
2018-09-18T09:16:20.243Z,17.13
2018-09-18T09:18:48.550Z,16.27
2018-09-18T09:21:16.929Z,16.60
2018-09-18T09:23:45.173Z,16.17
2018-09-18T09:26:13.475Z,17.90
2018-09-18T09:28:41.817Z,15.30
2018-09-18T09:31:10.091Z,16.10
2018-09-18T09:33:38.382Z,16.03
2018-09-18T09:36:06.737Z,16.27
2018-09-18T09:38:35.040Z,17.10
2018-09-18T09:41:03.346Z,15.47
2018-09-18T09:43:31.674Z,14.77
2018-09-18T09:46:00.012Z,14.43
2018-09-18T09:48:28.369Z,19.03
2018-09-18T09:50:56.684Z,17.90
2018-09-18T09:53:24.975Z,15.67
2018-09-18T09:55:53.270Z,15.67
2018-09-18T09:58:21.582Z,14.57
2018-09-18T10:00:49.909Z,15.43
2018-09-18T10:03:18.204Z,14.63
2018-09-18T10:05:46.528Z,14.53
2018-09-18T10:08:14.827Z,14.00
2018-09-18T10:10:43.272Z,14.80
2018-09-18T10:13:11.459Z,15.23
2018-09-18T10:15:39.764Z,14.90
2018-09-18T10:18:08.087Z,14.57
2018-09-18T10:20:36.374Z,13.93
2018-09-18T10:23:04.671Z,14.63
2018-09-18T10:25:32.970Z,13.80
2018-09-18T10:28:01.278Z,13.40
2018-09-18T10:30:29.593Z,14.97
2018-09-18T10:32:57.894Z,13.57
2018-09-18T10:35:26.216Z,14.93
2018-09-18T10:37:54.518Z,13.90
2018-09-18T10:40:22.791Z,15.50
2018-09-18T10:42:51.172Z,13.43
2018-09-18T10:45:19.422Z,12.63
2018-09-18T10:47:47.711Z,12.90
2018-09-18T10:50:16.019Z,13.87
2018-09-18T10:52:44.365Z,13.03
2018-09-18T10:55:12.631Z,11.97
2018-09-18T10:57:40.943Z,12.60
2018-09-18T11:00:09.272Z,11.80
2018-09-18T11:02:37.563Z,12.00
2018-09-18T11:05:05.882Z,11.67
2018-09-18T11:07:34.234Z,11.70
2018-09-18T11:10:02.550Z,12.33
2018-09-18T11:12:30.862Z,12.50
2018-09-18T11:14:59.136Z,12.20
2018-09-18T11:17:27.442Z,13.27
2018-09-18T11:19:55.789Z,10.30
2018-09-18T11:22:24.069Z,11.17
2018-09-18T11:24:52.392Z,10.47
2018-09-18T11:27:20.662Z,10.40
2018-09-18T11:29:48.959Z,9.67
2018-09-18T11:32:17.247Z,10.77
2018-09-18T11:34:45.567Z,10.60
2018-09-18T11:37:13.939Z,10.97
2018-09-18T11:39:42.222Z,10.10
2018-09-18T11:42:10.534Z,11.07
2018-09-18T11:44:38.834Z,11.30
2018-09-18T11:47:07.130Z,11.17
2018-09-18T11:49:35.445Z,11.17
2018-09-18T11:52:03.759Z,10.43
2018-09-18T11:54:32.155Z,10.70
2018-09-18T11:57:00.535Z,9.77
2018-09-18T11:59:28.812Z,8.90
2018-09-18T12:01:57.103Z,10.03
2018-09-18T12:04:25.435Z,9.83
2018-09-18T12:06:53.707Z,9.33
2018-09-18T12:09:22.015Z,9.63
2018-09-18T12:11:50.322Z,10.20
2018-09-18T12:14:18.621Z,10.20
2018-09-18T12:16:46.920Z,10.87
2018-09-18T12:19:15.234Z,10.70
2018-09-18T12:21:43.526Z,11.83
2018-09-18T12:24:11.827Z,10.83
2018-09-18T12:26:40.139Z,10.47
2018-09-18T12:29:08.434Z,10.63
2018-09-18T12:31:36.736Z,12.20
2018-09-18T12:34:05.043Z,11.27
2018-09-18T12:36:33.346Z,11.70
2018-09-18T12:39:01.660Z,11.50
2018-09-18T12:41:30.055Z,11.50
2018-09-18T12:43:58.268Z,10.87
2018-09-18T12:46:26.567Z,10.97
2018-09-18T12:48:54.898Z,11.40
2018-09-18T12:51:23.189Z,11.30
2018-09-18T12:53:51.536Z,11.03
2018-09-18T12:56:19.810Z,12.23
2018-09-18T12:58:48.122Z,11.80
2018-09-18T13:01:16.431Z,11.20
2018-09-18T13:03:44.739Z,11.50
2018-09-18T13:06:13.165Z,12.70
2018-09-18T13:08:41.339Z,11.60
2018-09-18T13:11:09.655Z,11.27
2018-09-18T13:13:38.021Z,12.00
2018-09-18T13:16:06.266Z,12.20
2018-09-18T13:18:34.578Z,11.00
2018-09-18T13:21:02.955Z,11.67
2018-09-18T13:23:31.338Z,11.47
2018-09-18T13:25:59.638Z,11.80
2018-09-18T13:28:27.936Z,11.73
2018-09-18T13:30:56.234Z,11.90
2018-09-18T13:33:24.542Z,12.00
2018-09-18T13:35:52.839Z,12.10
2018-09-18T13:38:21.150Z,12.13
2018-09-18T13:40:49.507Z,12.00
2018-09-18T13:43:17.758Z,12.33
2018-09-18T13:45:46.093Z,12.80
2018-09-18T13:48:14.399Z,12.50
2018-09-18T13:50:42.698Z,11.97
2018-09-18T13:53:11.003Z,11.43
2018-09-18T13:55:39.453Z,12.77
2018-09-18T13:58:07.635Z,12.40
2018-09-18T14:00:35.934Z,12.07
2018-09-18T14:03:04.241Z,11.17
2018-09-18T14:05:32.640Z,10.90
2018-09-18T14:08:00.848Z,12.00
2018-09-18T14:10:29.163Z,10.90
2018-09-18T14:12:57.467Z,11.03
2018-09-18T14:15:25.767Z,10.83
2018-09-18T14:17:54.083Z,11.67
2018-09-18T14:20:22.476Z,13.33
2018-09-18T14:22:50.678Z,11.03
2018-09-18T14:25:18.995Z,11.70
2018-09-18T14:27:47.294Z,11.37
2018-09-18T14:30:15.592Z,11.50
2018-09-18T14:32:43.916Z,12.13
2018-09-18T14:35:12.212Z,12.37
2018-09-18T14:37:40.509Z,11.27
2018-09-18T14:40:08.828Z,11.30
2018-09-18T14:42:37.271Z,11.40
2018-09-18T14:45:05.574Z,14.70
2018-09-18T14:47:33.886Z,11.20
2018-09-18T14:50:02.901Z,12.53
2018-09-18T14:52:31.184Z,10.63
2018-09-18T14:54:59.498Z,11.87
2018-09-18T14:57:27.795Z,12.10
2018-09-18T14:59:56.110Z,11.90
2018-09-18T15:02:24.406Z,14.93
2018-09-18T15:04:52.752Z,11.30
2018-09-18T15:07:21.027Z,12.10
2018-09-18T15:09:49.311Z,11.63
2018-09-18T15:12:17.608Z,14.90
2018-09-18T15:14:45.988Z,11.73
2018-09-18T15:17:14.214Z,13.47
2018-09-18T15:19:42.516Z,11.53
2018-09-18T15:22:10.864Z,11.90
2018-09-18T15:24:39.146Z,11.83
2018-09-18T15:27:07.454Z,11.30
2018-09-18T15:29:35.747Z,11.63
2018-09-18T15:32:04.064Z,11.40
2018-09-18T15:34:32.355Z,12.40
2018-09-18T15:37:00.651Z,12.57
2018-09-18T15:39:29.047Z,13.20
2018-09-18T15:41:57.290Z,14.40
2018-09-18T15:44:25.586Z,12.07
2018-09-18T15:46:53.899Z,12.40
2018-09-18T15:49:22.190Z,11.20
2018-09-18T15:51:50.523Z,20.27
2018-09-18T15:54:18.804Z,12.07
2018-09-18T15:56:47.098Z,12.03
2018-09-18T15:59:15.594Z,11.83
2018-09-18T16:01:45.508Z,12.80
2018-09-18T16:04:13.809Z,11.37
2018-09-18T16:06:42.118Z,11.67
2018-09-18T16:09:10.467Z,11.00
2018-09-18T16:11:38.782Z,11.77
2018-09-18T16:14:07.077Z,10.83
2018-09-18T16:16:35.438Z,11.63
2018-09-18T16:19:03.738Z,11.90
2018-09-18T16:21:32.027Z,11.40
2018-09-18T16:24:00.342Z,12.07
2018-09-18T16:26:28.641Z,10.30
2018-09-18T16:28:56.959Z,12.10
2018-09-18T16:31:25.249Z,11.67
2018-09-18T16:33:53.542Z,10.93
2018-09-18T16:36:21.850Z,12.00
2018-09-18T16:38:50.150Z,11.90
2018-09-18T16:41:18.470Z,10.53
2018-09-18T16:43:46.812Z,11.33
2018-09-18T16:46:15.082Z,11.60
2018-09-18T16:48:43.496Z,11.90
2018-09-18T16:51:11.700Z,12.87
2018-09-18T16:53:40.014Z,12.63
2018-09-18T16:56:08.310Z,12.90
2018-09-18T16:58:36.686Z,11.87
2018-09-18T17:01:04.914Z,10.90
2018-09-18T17:03:33.244Z,12.17
2018-09-18T17:06:01.553Z,11.90
2018-09-18T17:08:29.859Z,11.37
2018-09-18T17:10:59.479Z,10.67
2018-09-18T17:13:27.894Z,10.50
2018-09-18T17:15:56.095Z,10.63
2018-09-18T17:18:24.788Z,10.23
2018-09-18T17:20:53.055Z,10.03
2018-09-18T17:23:21.369Z,9.50
2018-09-18T17:25:49.655Z,8.90
2018-09-18T17:28:18.028Z,8.73
2018-09-18T17:30:46.287Z,8.70
2018-09-18T17:33:14.685Z,9.47
2018-09-18T17:35:42.979Z,8.57
2018-09-18T17:38:11.242Z,9.17
2018-09-18T17:40:39.554Z,10.70
2018-09-18T17:43:07.845Z,9.47
2018-09-18T17:45:36.143Z,9.90
2018-09-18T17:48:04.480Z,10.20
2018-09-18T17:50:32.780Z,10.77
2018-09-18T17:53:01.083Z,9.67
2018-09-18T17:55:29.383Z,10.00
2018-09-18T17:57:57.703Z,10.70
2018-09-18T18:00:26.010Z,11.83
2018-09-18T18:02:54.306Z,8.10
2018-09-18T18:05:22.646Z,8.00
2018-09-18T18:07:50.895Z,7.90
2018-09-18T18:10:19.202Z,15.13
2018-09-18T18:12:47.494Z,7.70
2018-09-18T18:15:15.807Z,12.63
2018-09-18T18:17:44.113Z,8.20
2018-09-18T18:20:12.460Z,12.90
2018-09-18T18:22:40.707Z,7.90
2018-09-18T18:25:09.007Z,8.83
2018-09-18T18:27:37.318Z,8.27
2018-09-18T18:30:05.606Z,7.90
2018-09-18T18:32:33.925Z,11.50
2018-09-18T18:35:02.218Z,13.57
2018-09-18T18:37:30.515Z,12.83
2018-09-18T18:39:58.836Z,14.23
2018-09-18T18:42:27.126Z,15.47
2018-09-18T18:45:01.562Z,18.03
2018-09-18T18:47:29.961Z,23.07
2018-09-18T18:49:58.188Z,15.20
2018-09-18T18:52:26.484Z,16.20
2018-09-18T18:54:54.778Z,14.70
2018-09-18T18:57:23.090Z,13.80
2018-09-18T18:59:51.390Z,13.83
2018-09-18T19:02:19.702Z,12.90
2018-09-18T19:04:48.008Z,12.10
2018-09-18T19:07:16.349Z,8.77
2018-09-18T19:09:44.643Z,10.40
2018-09-18T19:12:12.966Z,8.50
2018-09-18T19:14:41.253Z,8.43
2018-09-18T19:17:09.555Z,9.03
2018-09-18T19:19:37.872Z,7.53
2018-09-18T19:22:06.165Z,7.57
2018-09-18T19:24:34.485Z,7.00
2018-09-18T19:27:02.788Z,7.40
2018-09-18T19:29:31.106Z,6.53
2018-09-18T19:31:59.576Z,7.90
2018-09-18T19:34:27.884Z,6.67
2018-09-18T19:36:56.179Z,6.70
2018-09-18T19:39:24.475Z,7.07
2018-09-18T19:41:52.783Z,7.00
2018-09-18T19:44:59.389Z,7.70
2018-09-18T19:47:27.725Z,7.37
2018-09-18T19:49:56.019Z,7.53
2018-09-18T19:52:24.413Z,7.00
2018-09-18T19:54:52.615Z,7.87
2018-09-18T19:57:22.095Z,7.23
2018-09-18T19:59:50.419Z,7.23
2018-09-18T20:02:18.710Z,6.23
2018-09-18T20:04:47.010Z,7.00
2018-09-18T20:07:15.311Z,7.03
2018-09-18T20:09:43.624Z,7.23
2018-09-18T20:12:12.330Z,7.67
2018-09-18T20:14:40.644Z,7.60
2018-09-18T20:17:08.934Z,7.80
2018-09-18T20:19:37.243Z,6.83
2018-09-18T20:22:05.530Z,7.10
2018-09-18T20:24:33.835Z,6.40
2018-09-18T20:27:02.131Z,7.13
2018-09-18T20:29:30.512Z,7.80
2018-09-18T20:31:58.814Z,7.17
2018-09-18T20:34:27.177Z,8.70
2018-09-18T20:36:55.481Z,6.77
2018-09-18T20:39:23.789Z,7.23
2018-09-18T20:41:52.126Z,7.40
2018-09-18T20:44:20.406Z,7.20
2018-09-18T20:46:48.739Z,6.90
2018-09-18T20:49:17.059Z,6.30
2018-09-18T20:51:46.261Z,6.47
2018-09-18T20:54:14.571Z,6.77
2018-09-18T20:56:42.864Z,6.50
2018-09-18T20:59:11.178Z,5.90
2018-09-18T21:01:39.480Z,7.20
2018-09-18T21:04:07.796Z,6.87
2018-09-18T21:06:36.100Z,7.30
2018-09-18T21:09:04.406Z,6.90
2018-09-18T21:11:32.714Z,6.37
2018-09-18T21:14:01.027Z,7.40
2018-09-18T21:16:29.346Z,6.73
2018-09-18T21:18:57.647Z,7.70
2018-09-18T21:21:25.976Z,7.20
2018-09-18T21:23:54.281Z,7.27
2018-09-18T21:26:22.575Z,7.83
2018-09-18T21:28:50.889Z,7.50
2018-09-18T21:31:19.207Z,6.50
2018-09-18T21:33:47.518Z,6.33
2018-09-18T21:36:15.821Z,7.50
2018-09-18T21:38:44.154Z,6.50
2018-09-18T21:41:12.444Z,7.27
2018-09-18T21:43:40.757Z,7.30
2018-09-18T21:46:09.063Z,7.13
2018-09-18T21:48:37.388Z,7.40
2018-09-18T21:51:05.754Z,6.87
2018-09-18T21:53:34.064Z,6.77
2018-09-18T21:56:02.382Z,7.37
2018-09-18T21:58:30.682Z,7.90
2018-09-18T22:00:58.990Z,9.07
2018-09-18T22:03:27.324Z,8.60
2018-09-18T22:05:55.666Z,8.87
2018-09-18T22:08:23.990Z,7.60
2018-09-18T22:10:52.295Z,7.90
2018-09-18T22:13:20.611Z,7.33
2018-09-18T22:15:48.919Z,8.20
2018-09-18T22:18:17.254Z,8.20
2018-09-18T22:20:45.571Z,7.50
2018-09-18T22:23:13.922Z,7.60
2018-09-18T22:25:42.245Z,6.97
2018-09-18T22:28:10.565Z,7.70
2018-09-18T22:30:38.888Z,7.10
2018-09-18T22:33:07.199Z,7.20
2018-09-18T22:35:35.508Z,7.00
2018-09-18T22:38:03.821Z,7.10
2018-09-18T22:40:32.125Z,7.33
2018-09-18T22:43:00.479Z,7.60
2018-09-18T22:45:28.759Z,7.60
2018-09-18T22:47:57.074Z,7.63
2018-09-18T22:50:25.375Z,7.50
2018-09-18T22:52:53.683Z,9.00
2018-09-18T22:55:22.005Z,7.10
2018-09-18T22:57:50.306Z,8.47
2018-09-18T23:00:18.622Z,9.00
2018-09-18T23:02:46.938Z,9.10
2018-09-18T23:05:15.259Z,8.93
2018-09-18T23:07:43.566Z,8.60
2018-09-18T23:10:11.871Z,10.20
2018-09-18T23:12:40.199Z,9.10
2018-09-18T23:15:08.524Z,8.60
2018-09-18T23:17:36.840Z,9.00
2018-09-18T23:20:05.150Z,8.33
2018-09-18T23:22:33.473Z,9.90
2018-09-18T23:25:01.784Z,10.03
2018-09-18T23:27:30.095Z,10.00
2018-09-18T23:29:58.415Z,10.40
2018-09-18T23:32:26.744Z,9.97
2018-09-18T23:34:55.058Z,10.27
2018-09-18T23:37:23.365Z,8.80
2018-09-18T23:39:51.683Z,9.03
2018-09-18T23:42:20.137Z,10.80
2018-09-18T23:44:48.301Z,8.20
2018-09-18T23:47:16.619Z,9.80
2018-09-18T23:49:44.926Z,10.47
2018-09-18T23:52:13.257Z,8.60
2018-09-18T23:54:41.554Z,9.70
2018-09-18T23:57:09.862Z,9.40
2018-09-18T23:59:38.184Z,8.87
